sensor_id;sensor_type;location;lat;lon;timestamp;pressure;altitude;pressure_sealevel;temperature;humidity
26865;BME280;40618;51.166;10.322;2023-02-22T00:00:28;97464.88;;;7.24;87.56
26865;BME280;40618;51.166;10.322;2023-02-22T00:05:44;97457.22;;;7.20;87.52
26865;BME280;40618;51.166;10.322;2023-02-22T00:08:15;97450.34;;;7.20;87.44
26865;BME280;40618;51.166;10.322;2023-02-22T00:10:42;97436.63;;;7.20;87.30
26865;BME280;40618;51.166;10.322;2023-02-22T00:13:10;97445.25;;;7.17;88.04
26865;BME280;40618;51.166;10.322;2023-02-22T00:15:37;97447.00;;;7.17;87.79
26865;BME280;40618;51.166;10.322;2023-02-22T00:18:06;97446.09;;;7.19;87.60
26865;BME280;40618;51.166;10.322;2023-02-22T00:20:34;97437.50;;;7.19;87.41
26865;BME280;40618;51.166;10.322;2023-02-22T00:23:04;97440.91;;;7.21;87.46
26865;BME280;40618;51.166;10.322;2023-02-22T00:25:34;97430.66;;;7.19;87.90
26865;BME280;40618;51.166;10.322;2023-02-22T00:28:01;97432.31;;;7.20;87.85
26865;BME280;40618;51.166;10.322;2023-02-22T00:30:28;97429.72;;;7.23;87.64
26865;BME280;40618;51.166;10.322;2023-02-22T00:32:56;97427.16;;;7.22;88.00
26865;BME280;40618;51.166;10.322;2023-02-22T00:35:24;97422.88;;;7.21;87.65
26865;BME280;40618;51.166;10.322;2023-02-22T00:37:54;97425.44;;;7.22;88.13
26865;BME280;40618;51.166;10.322;2023-02-22T00:40:25;97422.03;;;7.22;87.96
26865;BME280;40618;51.166;10.322;2023-02-22T00:42:55;97414.28;;;7.22;87.56
26865;BME280;40618;51.166;10.322;2023-02-22T00:45:23;97411.72;;;7.20;87.86
26865;BME280;40618;51.166;10.322;2023-02-22T00:47:50;97414.28;;;7.22;87.80
26865;BME280;40618;51.166;10.322;2023-02-22T00:50:17;97410.81;;;7.23;87.15
26865;BME280;40618;51.166;10.322;2023-02-22T00:52:44;97409.16;;;7.22;87.98
26865;BME280;40618;51.166;10.322;2023-02-22T00:55:19;97407.38;;;7.24;87.86
26865;BME280;40618;51.166;10.322;2023-02-22T00:57:46;97409.94;;;7.24;88.22
26865;BME280;40618;51.166;10.322;2023-02-22T01:00:21;97409.06;;;7.25;88.05
26865;BME280;40618;51.166;10.322;2023-02-22T01:02:48;97414.22;;;7.25;87.85
26865;BME280;40618;51.166;10.322;2023-02-22T01:05:17;97411.66;;;7.25;87.57
26865;BME280;40618;51.166;10.322;2023-02-22T01:07:45;97409.06;;;7.26;87.55
26865;BME280;40618;51.166;10.322;2023-02-22T01:10:12;97412.47;;;7.27;88.01
26865;BME280;40618;51.166;10.322;2023-02-22T01:12:39;97409.88;;;7.27;87.64
26865;BME280;40618;51.166;10.322;2023-02-22T01:15:06;97405.59;;;7.27;87.25
26865;BME280;40618;51.166;10.322;2023-02-22T01:17:37;97404.75;;;7.27;87.68
26865;BME280;40618;51.166;10.322;2023-02-22T01:20:06;97403.03;;;7.27;88.05
26865;BME280;40618;51.166;10.322;2023-02-22T01:22:40;97409.91;;;7.25;87.60
26865;BME280;40618;51.166;10.322;2023-02-22T01:25:15;97410.78;;;7.26;87.89
26865;BME280;40618;51.166;10.322;2023-02-22T01:27:43;97399.59;;;7.27;87.79
26865;BME280;40618;51.166;10.322;2023-02-22T01:30:11;97397.00;;;7.27;87.59
26865;BME280;40618;51.166;10.322;2023-02-22T01:32:39;97402.16;;;7.27;87.17
26865;BME280;40618;51.166;10.322;2023-02-22T01:35:09;97397.03;;;7.25;87.69
26865;BME280;40618;51.166;10.322;2023-02-22T01:37:38;97388.50;;;7.23;87.32
26865;BME280;40618;51.166;10.322;2023-02-22T01:40:06;97387.63;;;7.23;88.09
26865;BME280;40618;51.166;10.322;2023-02-22T01:42:34;97381.69;;;7.21;87.58
26865;BME280;40618;51.166;10.322;2023-02-22T01:48:08;97379.97;;;7.20;88.01
26865;BME280;40618;51.166;10.322;2023-02-22T01:50:39;97385.97;;;7.22;87.70
26865;BME280;40618;51.166;10.322;2023-02-22T01:53:13;97385.94;;;7.23;87.66
26865;BME280;40618;51.166;10.322;2023-02-22T01:55:43;97376.47;;;7.24;87.25
26865;BME280;40618;51.166;10.322;2023-02-22T01:58:10;97379.03;;;7.24;87.75
26865;BME280;40618;51.166;10.322;2023-02-22T02:00:37;97375.56;;;7.26;87.52
26865;BME280;40618;51.166;10.322;2023-02-22T02:03:13;97368.72;;;7.25;87.55
26865;BME280;40618;51.166;10.322;2023-02-22T02:05:48;97374.72;;;7.24;87.85
26865;BME280;40618;51.166;10.322;2023-02-22T02:08:26;97369.63;;;7.23;87.87
26865;BME280;40618;51.166;10.322;2023-02-22T02:11:07;97371.31;;;7.24;87.68
26865;BME280;40618;51.166;10.322;2023-02-22T02:13:34;97373.88;;;7.25;87.37
26865;BME280;40618;51.166;10.322;2023-02-22T02:16:00;97376.44;;;7.25;87.62
26865;BME280;40618;51.166;10.322;2023-02-22T02:18:27;97372.16;;;7.26;87.59
26865;BME280;40618;51.166;10.322;2023-02-22T02:21:36;97370.41;;;7.26;87.74
26865;BME280;40618;51.166;10.322;2023-02-22T02:27:24;97370.38;;;7.28;87.97
26865;BME280;40618;51.166;10.322;2023-02-22T02:39:10;97357.56;;;7.25;87.90
26865;BME280;40618;51.166;10.322;2023-02-22T02:42:02;97359.28;;;7.26;87.82
26865;BME280;40618;51.166;10.322;2023-02-22T02:44:54;97360.97;;;7.25;87.68
26865;BME280;40618;51.166;10.322;2023-02-22T02:47:29;97360.16;;;7.25;88.16
26865;BME280;40618;51.166;10.322;2023-02-22T02:52:33;97354.97;;;7.26;87.42
26865;BME280;40618;51.166;10.322;2023-02-22T02:55:02;97354.97;;;7.26;87.98
26865;BME280;40618;51.166;10.322;2023-02-22T02:57:31;97352.38;;;7.26;87.70
26865;BME280;40618;51.166;10.322;2023-02-22T02:59:56;97348.09;;;7.25;88.17
26865;BME280;40618;51.166;10.322;2023-02-22T03:05:41;97340.44;;;7.22;87.73
26865;BME280;40618;51.166;10.322;2023-02-22T03:11:44;97335.31;;;7.21;87.81
26865;BME280;40618;51.166;10.322;2023-02-22T03:14:26;97333.63;;;7.20;88.01
26865;BME280;40618;51.166;10.322;2023-02-22T03:20:04;97335.41;;;7.18;87.92
26865;BME280;40618;51.166;10.322;2023-02-22T03:22:41;97326.88;;;7.14;88.09
26865;BME280;40618;51.166;10.322;2023-02-22T03:25:31;97322.63;;;7.11;87.15
26865;BME280;40618;51.166;10.322;2023-02-22T03:28:04;97323.47;;;7.10;88.19
26865;BME280;40618;51.166;10.322;2023-02-22T03:30:48;97320.97;;;7.07;87.16
26865;BME280;40618;51.166;10.322;2023-02-22T03:33:24;97316.69;;;7.06;87.63
26865;BME280;40618;51.166;10.322;2023-02-22T03:36:01;97324.44;;;7.05;87.56
26865;BME280;40618;51.166;10.322;2023-02-22T03:38:32;97316.75;;;7.03;87.46
26865;BME280;40618;51.166;10.322;2023-02-22T03:41:01;97318.47;;;7.04;87.66
26865;BME280;40618;51.166;10.322;2023-02-22T03:43:52;97310.78;;;7.03;87.23
26865;BME280;40618;51.166;10.322;2023-02-22T03:46:25;97308.22;;;7.01;87.88
26865;BME280;40618;51.166;10.322;2023-02-22T03:49:01;97309.16;;;6.95;87.62
26865;BME280;40618;51.166;10.322;2023-02-22T03:51:34;97304.94;;;6.91;87.53
26865;BME280;40618;51.166;10.322;2023-02-22T03:54:02;97303.28;;;6.90;87.89
26865;BME280;40618;51.166;10.322;2023-02-22T03:56:31;97302.44;;;6.88;87.34
26865;BME280;40618;51.166;10.322;2023-02-22T03:59:06;97309.34;;;6.86;87.92
26865;BME280;40618;51.166;10.322;2023-02-22T04:01:34;97303.44;;;6.81;87.80
26865;BME280;40618;51.166;10.322;2023-02-22T04:04:00;97302.69;;;6.74;87.48
26865;BME280;40618;51.166;10.322;2023-02-22T04:06:27;97298.44;;;6.72;88.18
26865;BME280;40618;51.166;10.322;2023-02-22T04:08:53;97307.06;;;6.69;87.37
26865;BME280;40618;51.166;10.322;2023-02-22T04:11:19;97301.97;;;6.66;87.82
26865;BME280;40618;51.166;10.322;2023-02-22T04:13:45;97296.00;;;6.63;87.64
26865;BME280;40618;51.166;10.322;2023-02-22T04:16:11;97302.13;;;6.57;87.26
26865;BME280;40618;51.166;10.322;2023-02-22T04:18:36;97298.72;;;6.53;87.50
26865;BME280;40618;51.166;10.322;2023-02-22T04:21:02;97292.84;;;6.48;87.41
26865;BME280;40618;51.166;10.322;2023-02-22T04:23:28;97295.47;;;6.43;87.56
26865;BME280;40618;51.166;10.322;2023-02-22T04:25:54;97292.13;;;6.38;87.19
26865;BME280;40618;51.166;10.322;2023-02-22T04:28:19;97298.19;;;6.36;87.35
26865;BME280;40618;51.166;10.322;2023-02-22T04:30:45;97297.31;;;6.35;87.10
26865;BME280;40618;51.166;10.322;2023-02-22T04:33:11;97295.59;;;6.36;87.33
26865;BME280;40618;51.166;10.322;2023-02-22T04:35:37;97291.38;;;6.32;87.82
26865;BME280;40618;51.166;10.322;2023-02-22T04:38:03;97295.66;;;6.31;87.71
26865;BME280;40618;51.166;10.322;2023-02-22T04:40:29;97289.75;;;6.24;87.45
26865;BME280;40618;51.166;10.322;2023-02-22T04:42:55;97298.38;;;6.23;87.09
26865;BME280;40618;51.166;10.322;2023-02-22T04:45:21;97292.41;;;6.20;87.38
26865;BME280;40618;51.166;10.322;2023-02-22T04:47:47;97298.38;;;6.22;87.75
26865;BME280;40618;51.166;10.322;2023-02-22T04:50:12;97300.09;;;6.21;87.32
26865;BME280;40618;51.166;10.322;2023-02-22T04:52:38;97300.16;;;6.18;87.87
26865;BME280;40618;51.166;10.322;2023-02-22T04:55:05;97305.41;;;6.10;87.36
26865;BME280;40618;51.166;10.322;2023-02-22T04:57:31;97302.03;;;6.05;87.33
26865;BME280;40618;51.166;10.322;2023-02-22T04:59:57;97296.91;;;6.04;87.27
26865;BME280;40618;51.166;10.322;2023-02-22T05:02:23;97291.03;;;5.99;87.11
26865;BME280;40618;51.166;10.322;2023-02-22T05:04:49;97285.88;;;5.96;87.43
26865;BME280;40618;51.166;10.322;2023-02-22T05:07:15;97284.22;;;5.91;87.23
26865;BME280;40618;51.166;10.322;2023-02-22T05:09:42;97286.00;;;5.88;86.94
26865;BME280;40618;51.166;10.322;2023-02-22T05:12:08;97280.03;;;5.84;87.04
26865;BME280;40618;51.166;10.322;2023-02-22T05:14:33;97276.69;;;5.79;87.44
26865;BME280;40618;51.166;10.322;2023-02-22T05:17:00;97282.72;;;5.76;86.84
26865;BME280;40618;51.166;10.322;2023-02-22T05:19:26;97280.25;;;5.70;86.95
26865;BME280;40618;51.166;10.322;2023-02-22T05:21:52;97274.22;;;5.70;87.58
26865;BME280;40618;51.166;10.322;2023-02-22T05:24:17;97275.13;;;5.69;87.24
26865;BME280;40618;51.166;10.322;2023-02-22T05:26:44;97276.00;;;5.66;87.14
26865;BME280;40618;51.166;10.322;2023-02-22T05:29:11;97265.75;;;5.66;87.45
26865;BME280;40618;51.166;10.322;2023-02-22T05:31:37;97269.19;;;5.64;87.55
26865;BME280;40618;51.166;10.322;2023-02-22T05:34:03;97274.31;;;5.64;87.36
26865;BME280;40618;51.166;10.322;2023-02-22T05:36:29;97270.09;;;5.61;87.45
26865;BME280;40618;51.166;10.322;2023-02-22T05:38:55;97266.66;;;5.59;87.54
26865;BME280;40618;51.166;10.322;2023-02-22T05:41:21;97264.13;;;5.57;87.04
26865;BME280;40618;51.166;10.322;2023-02-22T05:43:46;97271.00;;;5.55;86.77
26865;BME280;40618;51.166;10.322;2023-02-22T05:46:13;97267.66;;;5.50;87.05
26865;BME280;40618;51.166;10.322;2023-02-22T05:48:39;97258.22;;;5.49;87.42
26865;BME280;40618;51.166;10.322;2023-02-22T05:51:05;97267.63;;;5.52;87.14
26865;BME280;40618;51.166;10.322;2023-02-22T05:53:31;97265.97;;;5.48;86.96
26865;BME280;40618;51.166;10.322;2023-02-22T05:55:57;97265.19;;;5.44;87.26
26865;BME280;40618;51.166;10.322;2023-02-22T05:58:23;97261.81;;;5.39;86.68
26865;BME280;40618;51.166;10.322;2023-02-22T06:00:48;97266.13;;;5.35;86.74
26865;BME280;40618;51.166;10.322;2023-02-22T06:03:14;97259.28;;;5.34;87.17
26865;BME280;40618;51.166;10.322;2023-02-22T06:05:40;97264.47;;;5.31;86.86
26865;BME280;40618;51.166;10.322;2023-02-22T06:08:06;97261.06;;;5.29;87.01
26865;BME280;40618;51.166;10.322;2023-02-22T06:10:33;97267.06;;;5.28;87.10
26865;BME280;40618;51.166;10.322;2023-02-22T06:13:00;97262.84;;;5.24;86.54
26865;BME280;40618;51.166;10.322;2023-02-22T06:15:28;97260.28;;;5.24;86.82
26865;BME280;40618;51.166;10.322;2023-02-22T06:17:55;97268.03;;;5.21;86.86
26865;BME280;40618;51.166;10.322;2023-02-22T06:20:24;97269.75;;;5.19;87.01
26865;BME280;40618;51.166;10.322;2023-02-22T06:22:53;97268.00;;;5.19;87.27
26865;BME280;40618;51.166;10.322;2023-02-22T06:25:27;97267.16;;;5.19;86.59
26865;BME280;40618;51.166;10.322;2023-02-22T06:27:58;97261.22;;;5.17;86.88
26865;BME280;40618;51.166;10.322;2023-02-22T06:30:26;97259.50;;;5.16;86.68
26865;BME280;40618;51.166;10.322;2023-02-22T06:32:52;97265.56;;;5.12;86.47
26865;BME280;40618;51.166;10.322;2023-02-22T06:35:18;97261.25;;;5.12;86.83
26865;BME280;40618;51.166;10.322;2023-02-22T06:37:44;97268.13;;;5.12;86.62
26865;BME280;40618;51.166;10.322;2023-02-22T06:40:10;97265.56;;;5.10;86.66
26865;BME280;40618;51.166;10.322;2023-02-22T06:42:38;97263.03;;;5.08;86.61
26865;BME280;40618;51.166;10.322;2023-02-22T06:45:04;97267.28;;;5.09;86.88
26865;BME280;40618;51.166;10.322;2023-02-22T06:47:29;97273.28;;;5.10;86.57
26865;BME280;40618;51.166;10.322;2023-02-22T06:49:57;97275.84;;;5.07;86.92
26865;BME280;40618;51.166;10.322;2023-02-22T06:52:24;97279.34;;;5.01;86.49
26865;BME280;40618;51.166;10.322;2023-02-22T06:54:51;97270.00;;;4.96;86.74
26865;BME280;40618;51.166;10.322;2023-02-22T06:57:17;97274.25;;;4.98;86.96
26865;BME280;40618;51.166;10.322;2023-02-22T06:59:43;97281.94;;;4.98;86.65
26865;BME280;40618;51.166;10.322;2023-02-22T07:02:10;97279.41;;;4.97;86.86
26865;BME280;40618;51.166;10.322;2023-02-22T07:04:37;97281.91;;;5.01;86.80
26865;BME280;40618;51.166;10.322;2023-02-22T07:07:02;97281.00;;;5.05;86.66
26865;BME280;40618;51.166;10.322;2023-02-22T07:09:29;97276.75;;;5.06;86.57
26865;BME280;40618;51.166;10.322;2023-02-22T07:11:55;97275.84;;;5.07;86.40
26865;BME280;40618;51.166;10.322;2023-02-22T07:14:20;97283.56;;;5.08;86.80
26865;BME280;40618;51.166;10.322;2023-02-22T07:16:46;97284.38;;;5.11;86.75
26865;BME280;40618;51.166;10.322;2023-02-22T07:19:12;97278.34;;;5.15;86.94
26865;BME280;40618;51.166;10.322;2023-02-22T07:21:38;97281.72;;;5.20;87.15
26865;BME280;40618;51.166;10.322;2023-02-22T07:24:04;97282.53;;;5.25;87.16
26865;BME280;40618;51.166;10.322;2023-02-22T07:26:29;97275.66;;;5.25;86.67
26865;BME280;40618;51.166;10.322;2023-02-22T07:28:55;97277.38;;;5.27;87.25
26865;BME280;40618;51.166;10.322;2023-02-22T07:31:21;97281.56;;;5.32;87.07
26865;BME280;40618;51.166;10.322;2023-02-22T07:33:47;97289.22;;;5.35;87.11
26865;BME280;40618;51.166;10.322;2023-02-22T07:36:13;97281.47;;;5.38;87.19
26865;BME280;40618;51.166;10.322;2023-02-22T07:38:45;97281.47;;;5.41;87.19
26865;BME280;40618;51.166;10.322;2023-02-22T07:41:10;97290.03;;;5.40;87.32
26865;BME280;40618;51.166;10.322;2023-02-22T07:43:37;97281.50;;;5.40;87.15
26865;BME280;40618;51.166;10.322;2023-02-22T07:46:02;97291.75;;;5.38;87.76
26865;BME280;40618;51.166;10.322;2023-02-22T07:48:30;97287.47;;;5.39;87.40
26865;BME280;40618;51.166;10.322;2023-02-22T07:50:56;97282.31;;;5.40;87.29
26865;BME280;40618;51.166;10.322;2023-02-22T07:53:25;97282.25;;;5.45;87.30
26865;BME280;40618;51.166;10.322;2023-02-22T07:56:02;97287.34;;;5.50;87.37
26865;BME280;40618;51.166;10.322;2023-02-22T07:58:31;97285.63;;;5.50;87.59
26865;BME280;40618;51.166;10.322;2023-02-22T08:00:57;97283.03;;;5.52;87.69
26865;BME280;40618;51.166;10.322;2023-02-22T08:03:24;97289.84;;;5.56;87.86
26865;BME280;40618;51.166;10.322;2023-02-22T08:05:53;97283.81;;;5.58;88.09
26865;BME280;40618;51.166;10.322;2023-02-22T08:08:21;97277.75;;;5.63;87.81
26865;BME280;40618;51.166;10.322;2023-02-22T08:10:48;97271.75;;;5.65;87.81
26865;BME280;40618;51.166;10.322;2023-02-22T08:13:15;97269.16;;;5.67;87.80
26865;BME280;40618;51.166;10.322;2023-02-22T08:15:42;97265.72;;;5.68;87.65
26865;BME280;40618;51.166;10.322;2023-02-22T08:18:15;97273.34;;;5.72;87.94
26865;BME280;40618;51.166;10.322;2023-02-22T08:20:44;97272.44;;;5.76;87.83
26865;BME280;40618;51.166;10.322;2023-02-22T08:23:13;97268.09;;;5.82;88.19
26865;BME280;40618;51.166;10.322;2023-02-22T08:25:39;97270.56;;;5.86;88.01
26865;BME280;40618;51.166;10.322;2023-02-22T08:28:08;97270.59;;;5.88;87.83
26865;BME280;40618;51.166;10.322;2023-02-22T08:30:39;97273.97;;;5.90;88.24
26865;BME280;40618;51.166;10.322;2023-02-22T08:33:08;97279.91;;;5.93;88.06
26865;BME280;40618;51.166;10.322;2023-02-22T08:35:35;97270.44;;;5.96;87.81
26865;BME280;40618;51.166;10.322;2023-02-22T08:38:03;97273.88;;;5.99;88.54
26865;BME280;40618;51.166;10.322;2023-02-22T08:40:33;97273.75;;;6.05;87.95
26865;BME280;40618;51.166;10.322;2023-02-22T08:43:00;97270.28;;;6.09;88.25
26865;BME280;40618;51.166;10.322;2023-02-22T08:45:27;97263.38;;;6.13;88.03
26865;BME280;40618;51.166;10.322;2023-02-22T08:47:53;97269.31;;;6.18;88.15
26865;BME280;40618;51.166;10.322;2023-02-22T08:50:24;97264.97;;;6.20;88.63
26865;BME280;40618;51.166;10.322;2023-02-22T08:52:53;97264.84;;;6.28;88.11
26865;BME280;40618;51.166;10.322;2023-02-22T08:55:23;97261.28;;;6.38;89.00
26865;BME280;40618;51.166;10.322;2023-02-22T08:57:50;97265.31;;;6.52;88.67
26865;BME280;40618;51.166;10.322;2023-02-22T09:00:20;97264.31;;;6.62;88.64
26865;BME280;40618;51.166;10.322;2023-02-22T09:02:50;97261.50;;;6.74;88.40
26865;BME280;40618;51.166;10.322;2023-02-22T09:05:17;97258.78;;;6.84;89.17
26865;BME280;40618;51.166;10.322;2023-02-22T09:07:43;97258.44;;;7.01;89.62
26865;BME280;40618;51.166;10.322;2023-02-22T09:10:15;97253.09;;;7.11;88.85
26865;BME280;40618;51.166;10.322;2023-02-22T09:12:42;97250.41;;;7.18;89.06
26865;BME280;40618;51.166;10.322;2023-02-22T09:15:08;97256.16;;;7.31;88.77
26865;BME280;40618;51.166;10.322;2023-02-22T09:17:34;97258.72;;;7.31;89.23
26865;BME280;40618;51.166;10.322;2023-02-22T09:20:06;97255.44;;;7.24;89.00
26865;BME280;40618;51.166;10.322;2023-02-22T09:22:32;97250.31;;;7.22;88.12
26865;BME280;40618;51.166;10.322;2023-02-22T09:24:58;97246.03;;;7.21;87.93
26865;BME280;40618;51.166;10.322;2023-02-22T09:27:24;97246.09;;;7.18;88.52
26865;BME280;40618;51.166;10.322;2023-02-22T09:29:53;97247.03;;;7.14;88.65
26865;BME280;40618;51.166;10.322;2023-02-22T09:32:21;97251.34;;;7.14;89.08
26865;BME280;40618;51.166;10.322;2023-02-22T09:34:52;97246.97;;;7.17;88.32
26865;BME280;40618;51.166;10.322;2023-02-22T09:37:19;97249.50;;;7.19;88.78
26865;BME280;40618;51.166;10.322;2023-02-22T09:39:44;97246.03;;;7.21;88.83
26865;BME280;40618;51.166;10.322;2023-02-22T09:42:27;97245.97;;;7.24;89.02
26865;BME280;40618;51.166;10.322;2023-02-22T09:45:13;97237.31;;;7.27;89.00
26865;BME280;40618;51.166;10.322;2023-02-22T09:47:51;97242.38;;;7.33;88.92
26865;BME280;40618;51.166;10.322;2023-02-22T09:50:40;97225.81;;;7.45;89.02
26865;BME280;40618;51.166;10.322;2023-02-22T09:56:00;97220.22;;;7.65;88.82
26865;BME280;40618;51.166;10.322;2023-02-22T09:58:38;97218.31;;;7.73;88.97
26865;BME280;40618;51.166;10.322;2023-02-22T10:03:57;97215.28;;;7.93;88.99
26865;BME280;40618;51.166;10.322;2023-02-22T10:06:24;97206.47;;;8.02;89.21
26865;BME280;40618;51.166;10.322;2023-02-22T10:08:53;97212.34;;;8.09;89.45
26865;BME280;40618;51.166;10.322;2023-02-22T10:17:23;97206.66;;;8.30;88.66
26865;BME280;40618;51.166;10.322;2023-02-22T10:25:34;97194.53;;;8.34;88.95
26865;BME280;40618;51.166;10.322;2023-02-22T10:28:18;97193.66;;;8.35;88.72
26865;BME280;40618;51.166;10.322;2023-02-22T10:33:28;97195.28;;;8.39;88.49
26865;BME280;40618;51.166;10.322;2023-02-22T10:35:59;97186.56;;;8.43;88.62
26865;BME280;40618;51.166;10.322;2023-02-22T10:38:28;97192.41;;;8.50;88.97
26865;BME280;40618;51.166;10.322;2023-02-22T10:41:19;97187.91;;;8.60;88.54
26865;BME280;40618;51.166;10.322;2023-02-22T10:43:51;97179.22;;;8.62;88.66
26865;BME280;40618;51.166;10.322;2023-02-22T10:46:19;97174.81;;;8.66;88.53
26865;BME280;40618;51.166;10.322;2023-02-22T10:48:50;97177.28;;;8.69;88.66
26865;BME280;40618;51.166;10.322;2023-02-22T10:51:18;97169.50;;;8.72;88.47
26865;BME280;40618;51.166;10.322;2023-02-22T10:53:53;97164.19;;;8.77;88.66
26865;BME280;40618;51.166;10.322;2023-02-22T10:56:49;97169.06;;;8.88;88.87
26865;BME280;40618;51.166;10.322;2023-02-22T10:59:31;97157.72;;;8.93;89.16
26865;BME280;40618;51.166;10.322;2023-02-22T11:02:00;97172.19;;;8.99;88.98
26865;BME280;40618;51.166;10.322;2023-02-22T11:04:52;97160.88;;;9.03;88.26
26865;BME280;40618;51.166;10.322;2023-02-22T11:07:32;97165.09;;;9.06;88.17
26865;BME280;40618;51.166;10.322;2023-02-22T11:10:03;97160.66;;;9.11;88.83
26865;BME280;40618;51.166;10.322;2023-02-22T11:12:40;97165.53;;;9.22;88.69
26865;BME280;40618;51.166;10.322;2023-02-22T11:17:44;97155.97;;;9.24;88.07
26865;BME280;40618;51.166;10.322;2023-02-22T11:20:30;97160.44;;;9.19;87.60
26865;BME280;40618;51.166;10.322;2023-02-22T11:23:01;97155.28;;;9.19;87.73
26865;BME280;40618;51.166;10.322;2023-02-22T11:25:31;97152.59;;;9.22;87.56
26865;BME280;40618;51.166;10.322;2023-02-22T11:28:17;97145.56;;;9.27;88.34
26865;BME280;40618;51.166;10.322;2023-02-22T11:30:56;97147.06;;;9.34;87.97
26865;BME280;40618;51.166;10.322;2023-02-22T11:33:34;97142.50;;;9.42;88.08
26865;BME280;40618;51.166;10.322;2023-02-22T11:36:03;97136.47;;;9.43;87.61
26865;BME280;40618;51.166;10.322;2023-02-22T11:38:38;97135.53;;;9.46;88.08
26865;BME280;40618;51.166;10.322;2023-02-22T11:41:19;97125.91;;;9.49;88.22
26865;BME280;40618;51.166;10.322;2023-02-22T11:43:52;97119.03;;;9.50;87.68
26865;BME280;40618;51.166;10.322;2023-02-22T11:46:30;97113.72;;;9.55;87.36
26865;BME280;40618;51.166;10.322;2023-02-22T11:49:08;97113.53;;;9.59;87.54
26865;BME280;40618;51.166;10.322;2023-02-22T11:52:04;97120.31;;;9.63;87.48
26865;BME280;40618;51.166;10.322;2023-02-22T12:00:52;97112.72;;;9.86;87.80
26865;BME280;40618;51.166;10.322;2023-02-22T12:03:50;97112.69;;;9.87;87.46
26865;BME280;40618;51.166;10.322;2023-02-22T12:13:16;97101.28;;;9.93;87.47
26865;BME280;40618;51.166;10.322;2023-02-22T12:16:16;97101.97;;;9.98;87.45
26865;BME280;40618;51.166;10.322;2023-02-22T12:19:56;97101.50;;;10.12;87.29
26865;BME280;40618;51.166;10.322;2023-02-22T12:24:58;97088.22;;;10.23;86.72
26865;BME280;40618;51.166;10.322;2023-02-22T12:27:57;97092.28;;;10.30;86.60
26865;BME280;40618;51.166;10.322;2023-02-22T12:30:30;97095.66;;;10.32;86.94
26865;BME280;40618;51.166;10.322;2023-02-22T12:33:14;97096.34;;;10.37;87.03
26865;BME280;40618;51.166;10.322;2023-02-22T12:35:55;97096.16;;;10.43;86.63
26865;BME280;40618;51.166;10.322;2023-02-22T12:38:27;97095.28;;;10.43;86.99
26865;BME280;40618;51.166;10.322;2023-02-22T12:41:14;97090.16;;;10.41;86.41
26865;BME280;40618;51.166;10.322;2023-02-22T12:43:47;97084.94;;;10.43;86.32
26865;BME280;40618;51.166;10.322;2023-02-22T12:46:30;97080.44;;;10.48;86.55
26865;BME280;40618;51.166;10.322;2023-02-22T12:49:12;97085.41;;;10.54;86.30
26865;BME280;40618;51.166;10.322;2023-02-22T12:55:03;97084.84;;;10.70;86.32
26865;BME280;40618;51.166;10.322;2023-02-22T12:58:16;97080.25;;;10.78;85.96
26865;BME280;40618;51.166;10.322;2023-02-22T13:00:58;97081.69;;;10.85;86.15
26865;BME280;40618;51.166;10.322;2023-02-22T13:03:41;97079.22;;;10.82;85.87
26865;BME280;40618;51.166;10.322;2023-02-22T13:12:15;97079.50;;;10.98;85.91
26865;BME280;40618;51.166;10.322;2023-02-22T13:17:27;97077.03;;;10.95;85.45
26865;BME280;40618;51.166;10.322;2023-02-22T13:22:34;97063.44;;;11.12;85.55
26865;BME280;40618;51.166;10.322;2023-02-22T13:31:21;97059.81;;;11.16;84.92
26865;BME280;40618;51.166;10.322;2023-02-22T13:57:41;97055.53;;;11.37;83.93
26865;BME280;40618;51.166;10.322;2023-02-22T14:08:07;97048.13;;;11.50;83.70
26865;BME280;40618;51.166;10.322;2023-02-22T14:10:56;97044.56;;;11.52;83.90
26865;BME280;40618;51.166;10.322;2023-02-22T14:13:31;97042.03;;;11.51;84.06
26865;BME280;40618;51.166;10.322;2023-02-22T14:16:29;97041.50;;;11.43;83.76
26865;BME280;40618;51.166;10.322;2023-02-22T14:21:27;97039.28;;;11.33;83.98
26865;BME280;40618;51.166;10.322;2023-02-22T14:23:54;97037.63;;;11.31;83.81
26865;BME280;40618;51.166;10.322;2023-02-22T14:26:32;97036.97;;;11.26;83.77
26865;BME280;40618;51.166;10.322;2023-02-22T14:36:41;97040.94;;;11.12;84.25
26865;BME280;40618;51.166;10.322;2023-02-22T14:39:18;97032.34;;;11.12;84.28
26865;BME280;40618;51.166;10.322;2023-02-22T14:41:59;97034.09;;;11.11;84.22
26865;BME280;40618;51.166;10.322;2023-02-22T14:44:35;97030.75;;;11.08;84.49
26865;BME280;40618;51.166;10.322;2023-02-22T14:47:08;97028.94;;;11.10;84.21
26865;BME280;40618;51.166;10.322;2023-02-22T14:49:56;97028.78;;;11.14;84.24
26865;BME280;40618;51.166;10.322;2023-02-22T14:52:30;97023.47;;;11.17;84.40
26865;BME280;40618;51.166;10.322;2023-02-22T14:55:05;97022.56;;;11.18;84.10
26865;BME280;40618;51.166;10.322;2023-02-22T14:57:50;97022.56;;;11.18;84.40
26865;BME280;40618;51.166;10.322;2023-02-22T15:03:02;97022.72;;;11.15;84.04
26865;BME280;40618;51.166;10.322;2023-02-22T15:05:35;97022.72;;;11.15;84.45
26865;BME280;40618;51.166;10.322;2023-02-22T15:08:06;97022.72;;;11.15;84.25
26865;BME280;40618;51.166;10.322;2023-02-22T15:10:42;97018.47;;;11.13;84.06
26865;BME280;40618;51.166;10.322;2023-02-22T15:13:18;97014.13;;;11.13;84.23
26865;BME280;40618;51.166;10.322;2023-02-22T15:15:55;97012.44;;;11.12;84.46
26865;BME280;40618;51.166;10.322;2023-02-22T15:18:46;97012.44;;;11.12;84.36
26865;BME280;40618;51.166;10.322;2023-02-22T15:21:18;97013.41;;;11.10;84.25
26865;BME280;40618;51.166;10.322;2023-02-22T15:28:46;96997.91;;;11.08;84.15
26865;BME280;40618;51.166;10.322;2023-02-22T15:31:20;97002.25;;;11.08;84.18
26865;BME280;40618;51.166;10.322;2023-02-22T15:33:52;96998.09;;;11.04;84.18
26865;BME280;40618;51.166;10.322;2023-02-22T15:36:20;96997.16;;;11.06;84.36
26865;BME280;40618;51.166;10.322;2023-02-22T15:38:53;96998.84;;;11.07;84.28